Time;durP1;ratioP1;P1;durP2;ratioP2;P2;SDS_P1;SDS_P2;PMS_P1;PMS_P2;Temp;Humidity;BMP_temperature;BMP_pressure;BME280_temperature;BME280_humidity;BME280_pressure;Samples;Min_cycle;Max_cycle;Signal;HPM_P1;HPM_P2
2022/09/20 00:01:31;;;;;;;0.30;0.30;;;;;;;;;;12533749;28;20029;-78
2022/09/20 00:07:33;;;;;;;0.43;0.35;;;;;;;;;;12533015;28;20434;-79
2022/09/20 00:13:36;;;;;;;0.40;0.30;;;;;;;;;;12532066;28;20033;-79
2022/09/20 00:19:37;;;;;;;;;;;;;;;;;;12534016;28;20582;-79
2022/09/20 00:25:39;;;;;;;0.40;0.40;;;;;;;;;;12532689;28;19913;-79
2022/09/20 00:31:41;;;;;;;0.53;0.50;;;;;;;;;;12532850;28;20021;-78
2022/09/20 00:37:43;;;;;;;0.30;0.30;;;;;;;;;;12531484;28;20029;-79
2022/09/20 00:43:46;;;;;;;0.98;0.40;;;;;;;;;;12530064;28;20040;-79
2022/09/20 00:49:48;;;;;;;0.80;0.45;;;;;;;;;;12531695;28;20079;-79
2022/09/20 00:55:53;;;;;;;0.65;0.28;;;;;;;;;;12532138;28;20091;-79
2022/09/20 01:02:01;;;;;;;0.22;0.22;;;;;;;;;;12530690;28;20449;-79
2022/09/20 01:08:03;;;;;;;0.30;0.30;;;;;;;;;;12530947;28;20048;-77
2022/09/20 01:14:05;;;;;;;0.30;0.30;;;;;;;;;;12527981;28;20382;-78
2022/09/20 01:20:10;;;;;;;0.67;0.20;;;;;;;;;;12529517;28;20127;-78
2022/09/20 01:26:12;;;;;;;7.82;6.32;;;;;;;;;;12529860;28;20056;-78
2022/09/20 01:32:19;;;;;;;10.03;7.60;;;;;;;;;;12529345;28;20120;-79
2022/09/20 01:38:30;;;;;;;4.97;3.72;;;;;;;;;;12530197;28;20041;-79
2022/09/20 01:44:50;;;;;;;2.95;2.08;;;;;;;;;;12528893;28;20415;-78
2022/09/20 01:50:55;;;;;;;1.70;1.40;;;;;;;;;;12530484;28;20148;-79
2022/09/20 01:57:03;;;;;;;1.52;1.40;;;;;;;;;;12529871;28;20068;-79
2022/09/20 02:03:22;;;;;;;1.48;1.02;;;;;;;;;;12530165;28;20048;-80
2022/09/20 02:09:53;;;;;;;1.42;0.70;;;;;;;;;;12527742;28;20053;-79
2022/09/20 02:16:04;;;;;;;0.70;0.70;;;;;;;;;;12532951;28;20089;-80
2022/09/20 02:22:24;;;;;;;0.63;0.50;;;;;;;;;;12528450;28;20541;-79
2022/09/20 02:28:45;;;;;;;0.52;0.30;;;;;;;;;;12537528;28;20379;-80
2022/09/20 02:34:55;;;;;;;0.30;0.30;;;;;;;;;;12537689;28;20465;-80
2022/09/20 02:41:07;;;;;;;0.20;0.20;;;;;;;;;;12536418;28;20025;-80
2022/09/20 02:47:19;;;;;;;0.57;0.20;;;;;;;;;;12537139;28;20053;-79
2022/09/20 02:53:39;;;;;;;0.80;0.27;;;;;;;;;;12536414;28;20032;-79
2022/09/20 03:00:01;;;;;;;0.55;0.32;;;;;;;;;;12537322;28;20033;-80
2022/09/20 03:06:06;;;;;;;0.37;0.37;;;;;;;;;;12519243;28;20263;-79
2022/09/20 03:12:08;;;;;;;0.52;0.30;;;;;;;;;;12534908;28;20024;-79
2022/09/20 03:18:11;;;;;;;0.10;0.10;;;;;;;;;;12535817;28;20033;-79
2022/09/20 03:24:22;;;;;;;0.60;0.20;;;;;;;;;;12536395;28;20538;-79
2022/09/20 03:30:27;;;;;;;0.20;0.20;;;;;;;;;;12534507;28;20446;-80
2022/09/20 03:36:48;;;;;;;0.20;0.20;;;;;;;;;;12516714;28;20032;-79
2022/09/20 03:42:53;;;;;;;0.20;0.20;;;;;;;;;;12533086;28;20040;-79
2022/09/20 03:49:13;;;;;;;0.30;0.30;;;;;;;;;;12534879;28;20052;-79
2022/09/20 03:55:15;;;;;;;0.50;0.15;;;;;;;;;;12532958;28;20049;-79
2022/09/20 04:01:20;;;;;;;0.20;0.20;;;;;;;;;;12532926;28;20037;-79
2022/09/20 04:07:22;;;;;;;0.45;0.20;;;;;;;;;;12532533;28;20068;-78
2022/09/20 04:13:35;;;;;;;0.40;0.25;;;;;;;;;;12533305;28;20041;-78
2022/09/20 04:19:44;;;;;;;0.30;0.25;;;;;;;;;;12534058;28;20089;-79
2022/09/20 04:25:47;;;;;;;0.40;0.40;;;;;;;;;;12531143;28;20056;-78
2022/09/20 04:32:02;;;;;;;0.32;0.22;;;;;;;;;;12532422;28;20048;-80
2022/09/20 04:38:08;;;;;;;0.52;0.20;;;;;;;;;;12532361;28;20048;-79
2022/09/20 04:44:28;;;;;;;0.13;0.13;;;;;;;;;;12531439;28;20044;-79
2022/09/20 04:50:30;;;;;;;0.80;0.20;;;;;;;;;;12530623;28;20537;-79
2022/09/20 04:56:44;;;;;;;0.50;0.50;;;;;;;;;;12529943;28;20476;-77
2022/09/20 05:02:52;;;;;;;1.33;1.23;;;;;;;;;;12530745;28;20084;-79
2022/09/20 05:09:04;;;;;;;1.30;1.20;;;;;;;;;;12512662;28;20052;-79
2022/09/20 05:15:18;;;;;;;0.98;0.93;;;;;;;;;;12527998;28;20048;-79
2022/09/20 05:21:34;;;;;;;1.35;1.25;;;;;;;;;;12531178;28;20033;-80
2022/09/20 05:27:35;;;;;;;1.80;1.48;;;;;;;;;;12530089;28;20091;-79
2022/09/20 05:33:37;;;;;;;2.03;1.83;;;;;;;;;;12524266;28;20481;-81
2022/09/20 05:39:58;;;;;;;2.47;1.70;;;;;;;;;;12529086;28;20029;-80
2022/09/20 05:46:18;;;;;;;1.95;1.67;;;;;;;;;;12499972;28;20061;-81
2022/09/20 05:52:35;;;;;;;1.55;1.45;;;;;;;;;;12493515;28;20061;-80
2022/09/20 05:58:37;;;;;;;1.67;1.00;;;;;;;;;;12491047;28;20052;-79
2022/09/20 06:04:39;;;;;;;;;;;;;;;;;;12501217;28;20076;-80
2022/09/20 06:10:46;;;;;;;1.48;1.27;;;;;;;;;;12491814;28;19917;-78
2022/09/20 06:17:06;;;;;;;1.13;1.02;;;;;;;;;;12499715;28;20043;-78
2022/09/20 06:23:09;;;;;;;1.08;0.85;;;;;;;;;;12492023;28;20032;-78
2022/09/20 06:29:13;;;;;;;0.68;0.60;;;;;;;;;;12497482;28;20068;-77
2022/09/20 06:35:15;;;;;;;0.55;0.50;;;;;;;;;;12491950;28;20500;-78
2022/09/20 06:41:27;;;;;;;0.90;0.57;;;;;;;;;;12489239;28;20032;-79
2022/09/20 06:47:29;;;;;;;0.60;0.40;;;;;;;;;;12486585;28;20052;-78
2022/09/20 06:53:31;;;;;;;0.57;0.40;;;;;;;;;;12496800;28;20299;-79
2022/09/20 06:59:33;;;;;;;0.30;0.30;;;;;;;;;;12509481;28;20056;-79
2022/09/20 07:05:35;;;;;;;0.40;0.40;;;;;;;;;;12486546;28;20088;-79
2022/09/20 07:11:37;;;;;;;1.20;0.30;;;;;;;;;;12495648;28;20045;-80
2022/09/20 07:17:38;;;;;;;0.20;0.20;;;;;;;;;;12488884;28;20036;-79
2022/09/20 07:23:40;;;;;;;1.55;0.43;;;;;;;;;;12500206;28;20037;-79
2022/09/20 07:29:42;;;;;;;0.60;0.30;;;;;;;;;;12504701;28;20068;-80
2022/09/20 07:35:44;;;;;;;0.20;0.20;;;;;;;;;;12510450;28;20354;-80
2022/09/20 07:41:50;;;;;;;0.30;0.30;;;;;;;;;;12509702;28;20302;-79
2022/09/20 07:47:52;;;;;;;0.20;0.20;;;;;;;;;;12510521;28;20529;-79
2022/09/20 07:53:53;;;;;;;0.40;0.30;;;;;;;;;;12499114;28;20447;-80
2022/09/20 07:59:56;;;;;;;0.47;0.37;;;;;;;;;;12499366;28;20029;-80
2022/09/20 08:05:59;;;;;;;1.55;0.30;;;;;;;;;;12482954;28;20397;-80
2022/09/20 08:12:01;;;;;;;1.17;0.20;;;;;;;;;;12500122;28;20045;-79
2022/09/20 08:18:03;;;;;;;0.40;0.40;;;;;;;;;;12493790;28;20452;-79
2022/09/20 08:24:05;;;;;;;0.63;0.40;;;;;;;;;;12494292;28;20470;-80
2022/09/20 08:30:08;;;;;;;0.40;0.40;;;;;;;;;;12499339;28;20292;-81
2022/09/20 08:36:11;;;;;;;0.40;0.40;;;;;;;;;;12496240;28;20026;-80
2022/09/20 08:42:16;;;;;;;1.15;0.70;;;;;;;;;;12504843;28;20025;-80
2022/09/20 08:48:20;;;;;;;2.08;0.57;;;;;;;;;;12499498;28;20064;-80
2022/09/20 08:54:23;;;;;;;0.88;0.40;;;;;;;;;;12500619;28;20029;-79
2022/09/20 09:00:25;;;;;;;;;;;;;;;;;;12491095;28;20025;-79
2022/09/20 09:06:26;;;;;;;1.38;0.60;;;;;;;;;;12496594;28;19933;-79
2022/09/20 09:12:30;;;;;;;2.80;0.90;;;;;;;;;;12493496;28;20053;-79
2022/09/20 09:18:35;;;;;;;0.73;0.40;;;;;;;;;;12499144;28;20795;-80
2022/09/20 09:24:37;;;;;;;0.68;0.43;;;;;;;;;;12491108;28;20033;-81
2022/09/20 09:30:40;;;;;;;0.40;0.30;;;;;;;;;;12496892;28;20064;-79
2022/09/20 09:36:45;;;;;;;0.50;0.28;;;;;;;;;;12492653;28;20299;-80
2022/09/20 09:42:49;;;;;;;1.05;0.40;;;;;;;;;;12495130;28;20304;-79
2022/09/20 09:49:06;;;;;;;0.22;0.20;;;;;;;;;;12501744;28;20048;-78
2022/09/20 09:55:12;;;;;;;0.70;0.20;;;;;;;;;;12487686;28;21391;-78
2022/09/20 10:01:28;;;;;;;0.77;0.32;;;;;;;;;;12510145;28;20088;-79
2022/09/20 10:07:50;;;;;;;0.40;0.30;;;;;;;;;;12507771;28;20117;-79
2022/09/20 10:14:04;;;;;;;0.95;0.20;;;;;;;;;;12514673;28;20068;-78
2022/09/20 10:20:27;;;;;;;0.93;0.40;;;;;;;;;;12510429;28;20036;-78
2022/09/20 10:26:32;;;;;;;0.35;0.20;;;;;;;;;;12498221;28;20049;-79
2022/09/20 10:32:54;;;;;;;0.85;0.22;;;;;;;;;;12507291;28;20036;-79
2022/09/20 10:39:01;;;;;;;2.55;0.30;;;;;;;;;;12498835;28;20033;-78
2022/09/20 10:45:06;;;;;;;0.13;0.10;;;;;;;;;;12502930;28;20056;-79
2022/09/20 10:51:14;;;;;;;0.38;0.15;;;;;;;;;;12505913;28;20041;-78
2022/09/20 10:57:41;;;;;;;0.35;0.20;;;;;;;;;;12496786;28;20054;-80
2022/09/20 11:03:55;;;;;;;1.17;0.30;;;;;;;;;;12494987;28;20419;-80
2022/09/20 11:09:59;;;;;;;0.20;0.10;;;;;;;;;;12499105;28;20401;-80
2022/09/20 11:16:22;;;;;;;0.10;0.10;;;;;;;;;;12492208;28;20029;-81
2022/09/20 11:22:32;;;;;;;0.15;0.10;;;;;;;;;;12497985;28;20034;-79
2022/09/20 11:28:38;;;;;;;0.63;0.20;;;;;;;;;;12507249;28;20641;-80
2022/09/20 11:34:46;;;;;;;0.90;0.20;;;;;;;;;;12499795;28;20017;-80
2022/09/20 11:41:07;;;;;;;1.10;0.20;;;;;;;;;;12501454;28;20040;-79
2022/09/20 11:47:12;;;;;;;0.35;0.20;;;;;;;;;;12505052;28;20490;-79
2022/09/20 11:53:14;;;;;;;0.10;0.10;;;;;;;;;;12511479;28;20033;-79
2022/09/20 11:59:15;;;;;;;;;;;;;;;;;;12499276;28;20041;-78
2022/09/20 12:05:25;;;;;;;0.10;0.10;;;;;;;;;;12495478;28;19976;-78
2022/09/20 12:11:30;;;;;;;0.15;0.15;;;;;;;;;;12488200;28;20164;-78
2022/09/20 12:17:48;;;;;;;0.93;0.20;;;;;;;;;;12487116;28;20033;-78
2022/09/20 12:23:53;;;;;;;0.25;0.10;;;;;;;;;;12479817;28;20366;-78
2022/09/20 12:30:03;;;;;;;2.67;0.80;;;;;;;;;;12507953;28;20055;-81
2022/09/20 12:36:17;;;;;;;0.10;0.10;;;;;;;;;;12498808;28;20533;-79
2022/09/20 12:42:20;;;;;;;0.30;0.20;;;;;;;;;;12502709;28;20041;-79
2022/09/20 12:48:22;;;;;;;0.20;0.00;;;;;;;;;;12488425;28;20059;-79
2022/09/20 12:54:24;;;;;;;;;;;;;;;;;;12496633;28;20052;-79
2022/09/20 13:00:41;;;;;;;0.10;0.10;;;;;;;;;;12494419;28;19912;-79
2022/09/20 13:06:43;;;;;;;0.63;0.17;;;;;;;;;;12592441;28;20123;-80
2022/09/20 13:12:48;;;;;;;0.10;0.08;;;;;;;;;;12597130;28;20067;-81
2022/09/20 13:19:03;;;;;;;0.25;0.10;;;;;;;;;;12620487;28;20032;-79
2022/09/20 13:25:06;;;;;;;0.50;0.10;;;;;;;;;;12612853;28;20059;-79
2022/09/20 13:31:20;;;;;;;0.20;0.15;;;;;;;;;;12629594;28;20433;-79
2022/09/20 13:37:22;;;;;;;0.10;0.10;;;;;;;;;;12595370;28;20032;-78
2022/09/20 13:43:32;;;;;;;0.20;0.20;;;;;;;;;;12630739;28;20076;-79
2022/09/20 13:49:33;;;;;;;0.10;0.08;;;;;;;;;;12630604;28;20085;-79
2022/09/20 13:55:37;;;;;;;0.28;0.10;;;;;;;;;;12611948;28;20054;-80
2022/09/20 14:01:42;;;;;;;0.40;0.25;;;;;;;;;;12628089;28;20032;-80
2022/09/20 14:07:46;;;;;;;0.57;0.10;;;;;;;;;;12621595;28;20176;-80
2022/09/20 14:13:53;;;;;;;0.80;0.10;;;;;;;;;;12594335;28;20040;-80
2022/09/20 14:19:56;;;;;;;0.25;0.20;;;;;;;;;;12634101;28;20024;-79
2022/09/20 14:26:16;;;;;;;0.28;0.10;;;;;;;;;;12620854;28;20043;-80
2022/09/20 14:32:24;;;;;;;0.50;0.10;;;;;;;;;;12639412;28;20051;-80
2022/09/20 14:38:26;;;;;;;0.70;0.10;;;;;;;;;;12621682;28;20046;-79
2022/09/20 14:44:33;;;;;;;0.30;0.10;;;;;;;;;;12620066;28;20036;-80
2022/09/20 14:50:37;;;;;;;0.95;0.00;;;;;;;;;;12619989;28;20080;-80
2022/09/20 14:56:40;;;;;;;0.20;0.10;;;;;;;;;;12638254;28;20044;-79
2022/09/20 15:02:43;;;;;;;0.13;0.10;;;;;;;;;;12618947;28;20043;-77
2022/09/20 15:08:45;;;;;;;0.10;0.10;;;;;;;;;;12636380;28;20040;-79
2022/09/20 15:14:47;;;;;;;;;;;;;;;;;;12636375;28;20028;-79
2022/09/20 15:20:49;;;;;;;1.33;0.20;;;;;;;;;;12637952;28;19908;-78
2022/09/20 15:26:51;;;;;;;0.30;0.20;;;;;;;;;;12635859;28;20048;-79
2022/09/20 15:32:53;;;;;;;;;;;;;;;;;;12636184;28;20040;-79
2022/09/20 15:38:56;;;;;;;1.00;0.30;;;;;;;;;;12618857;28;20389;-79
2022/09/20 15:44:58;;;;;;;0.35;0.20;;;;;;;;;;12617378;28;20032;-79
2022/09/20 15:51:06;;;;;;;0.10;0.10;;;;;;;;;;12637026;28;20467;-80
2022/09/20 15:57:08;;;;;;;0.10;0.00;;;;;;;;;;12601540;28;20052;-79
2022/09/20 16:03:10;;;;;;;0.22;0.22;;;;;;;;;;12635038;28;20507;-78
2022/09/20 16:09:12;;;;;;;0.20;0.10;;;;;;;;;;12635248;28;20051;-80
2022/09/20 16:15:14;;;;;;;0.30;0.15;;;;;;;;;;12599777;28;20040;-79
2022/09/20 16:21:17;;;;;;;0.93;0.20;;;;;;;;;;12617334;28;20131;-79
2022/09/20 16:27:20;;;;;;;0.47;0.20;;;;;;;;;;12598494;28;20055;-79
2022/09/20 16:33:22;;;;;;;0.10;0.10;;;;;;;;;;12632315;28;20356;-79
2022/09/20 16:39:27;;;;;;;0.15;0.10;;;;;;;;;;12614423;28;20022;-79
2022/09/20 16:45:29;;;;;;;0.30;0.30;;;;;;;;;;12632216;28;20055;-80
2022/09/20 16:51:33;;;;;;;0.20;0.20;;;;;;;;;;12613656;28;20039;-79
2022/09/20 16:57:35;;;;;;;0.30;0.28;;;;;;;;;;12632281;28;20088;-80
2022/09/20 17:03:39;;;;;;;0.73;0.43;;;;;;;;;;12613290;28;20051;-81
2022/09/20 17:09:41;;;;;;;3.97;3.38;;;;;;;;;;12631293;28;20040;-80
2022/09/20 17:15:43;;;;;;;2.97;2.25;;;;;;;;;;12612794;28;20094;-80
2022/09/20 17:21:48;;;;;;;;;;;;;;;;;;12589237;28;20369;-80
2022/09/20 17:27:50;;;;;;;1.48;1.13;;;;;;;;;;12630717;28;19911;-79
2022/09/20 17:33:52;;;;;;;1.40;1.30;;;;;;;;;;12630777;28;20400;-79
2022/09/20 17:39:53;;;;;;;1.20;1.10;;;;;;;;;;12613047;28;20039;-79
2022/09/20 17:45:56;;;;;;;0.97;0.80;;;;;;;;;;12631255;28;20498;-79
2022/09/20 17:51:57;;;;;;;2.38;1.75;;;;;;;;;;12612308;28;20302;-80
2022/09/20 17:57:59;;;;;;;0.60;0.50;;;;;;;;;;12639417;28;20052;-79
2022/09/20 18:04:01;;;;;;;0.98;0.60;;;;;;;;;;12636370;28;20434;-79
2022/09/20 18:10:03;;;;;;;0.55;0.55;;;;;;;;;;12637552;28;20044;-78
2022/09/20 18:16:13;;;;;;;0.52;0.32;;;;;;;;;;12632251;28;20377;-79
2022/09/20 18:22:14;;;;;;;0.32;0.30;;;;;;;;;;12614994;28;20055;-79
2022/09/20 18:28:17;;;;;;;0.53;0.50;;;;;;;;;;12637420;28;20516;-79
2022/09/20 18:34:20;;;;;;;0.60;0.30;;;;;;;;;;12618004;28;20036;-77
2022/09/20 18:40:22;;;;;;;0.20;0.10;;;;;;;;;;12617074;28;20069;-78
2022/09/20 18:46:25;;;;;;;0.20;0.20;;;;;;;;;;12611040;28;20044;-78
2022/09/20 18:52:28;;;;;;;0.30;0.25;;;;;;;;;;12615324;28;20683;-78
2022/09/20 18:58:30;;;;;;;0.32;0.30;;;;;;;;;;12635884;28;20068;-78
2022/09/20 19:04:40;;;;;;;0.27;0.27;;;;;;;;;;12634678;28;20063;-78
2022/09/20 19:10:56;;;;;;;0.50;0.50;;;;;;;;;;12625051;28;20043;-79
2022/09/20 19:17:01;;;;;;;0.52;0.30;;;;;;;;;;12615911;28;20055;-79
2022/09/20 19:23:05;;;;;;;0.55;0.40;;;;;;;;;;12636508;28;20516;-80
2022/09/20 19:29:18;;;;;;;0.57;0.57;;;;;;;;;;12634897;28;20353;-80
2022/09/20 19:35:27;;;;;;;0.60;0.50;;;;;;;;;;12600358;28;20080;-80
2022/09/20 19:41:38;;;;;;;0.52;0.52;;;;;;;;;;12634586;28;20035;-80
2022/09/20 19:47:49;;;;;;;1.00;0.65;;;;;;;;;;12632402;28;20120;-79
2022/09/20 19:53:52;;;;;;;0.70;0.60;;;;;;;;;;12633139;28;20032;-79
2022/09/20 19:59:55;;;;;;;1.52;1.17;;;;;;;;;;12633230;28;20467;-79
2022/09/20 20:06:03;;;;;;;2.85;1.90;;;;;;;;;;12631558;28;20028;-78
2022/09/20 20:12:05;;;;;;;2.65;2.10;;;;;;;;;;12630477;28;20035;-79
2022/09/20 20:18:19;;;;;;;1.67;1.50;;;;;;;;;;12613764;28;20032;-79
2022/09/20 20:24:28;;;;;;;2.53;1.55;;;;;;;;;;12631483;28;20058;-79
2022/09/20 20:30:30;;;;;;;2.67;1.30;;;;;;;;;;12630806;28;20040;-78
2022/09/20 20:36:32;;;;;;;;;;;;;;;;;;12631704;28;20043;-79
2022/09/20 20:42:35;;;;;;;1.48;1.08;;;;;;;;;;12631526;28;20332;-78
2022/09/20 20:48:37;;;;;;;1.38;0.77;;;;;;;;;;12596383;28;20047;-79
2022/09/20 20:54:39;;;;;;;1.20;0.90;;;;;;;;;;12632110;28;20087;-79
2022/09/20 21:00:41;;;;;;;0.90;0.90;;;;;;;;;;12613188;28;20055;-79
2022/09/20 21:06:43;;;;;;;0.97;0.83;;;;;;;;;;12596860;28;20040;-78
2022/09/20 21:12:45;;;;;;;1.42;0.60;;;;;;;;;;12614204;28;20515;-79
2022/09/20 21:18:48;;;;;;;0.90;0.50;;;;;;;;;;12614306;28;20058;-79
2022/09/20 21:24:51;;;;;;;1.00;0.73;;;;;;;;;;12631694;28;20036;-78
2022/09/20 21:30:56;;;;;;;0.82;0.50;;;;;;;;;;12596780;28;20051;-79
2022/09/20 21:36:58;;;;;;;0.70;0.60;;;;;;;;;;12632220;28;20125;-78
2022/09/20 21:43:00;;;;;;;0.77;0.60;;;;;;;;;;12613020;28;20072;-80
2022/09/20 21:49:04;;;;;;;0.38;0.38;;;;;;;;;;12613026;28;20048;-79
2022/09/20 21:55:09;;;;;;;0.50;0.43;;;;;;;;;;12613617;28;20032;-79
2022/09/20 22:01:12;;;;;;;0.40;0.40;;;;;;;;;;12614000;28;20046;-79
2022/09/20 22:07:15;;;;;;;0.43;0.40;;;;;;;;;;12632831;28;20189;-79
2022/09/20 22:13:17;;;;;;;0.98;0.57;;;;;;;;;;12632014;28;20043;-79
2022/09/20 22:19:19;;;;;;;0.50;0.50;;;;;;;;;;12631459;28;20039;-79
2022/09/20 22:25:22;;;;;;;;;;;;;;;;;;12614231;28;20043;-80
2022/09/20 22:31:25;;;;;;;0.50;0.50;;;;;;;;;;12611989;28;19915;-76
2022/09/20 22:37:27;;;;;;;1.20;0.65;;;;;;;;;;12611547;28;20036;-79
2022/09/20 22:43:31;;;;;;;0.70;0.60;;;;;;;;;;12639439;28;20072;-79
2022/09/20 22:49:33;;;;;;;0.60;0.60;;;;;;;;;;12639810;28;20052;-79
2022/09/20 22:55:34;;;;;;;0.90;0.57;;;;;;;;;;12638711;28;20036;-79
2022/09/20 23:01:37;;;;;;;0.80;0.40;;;;;;;;;;12620129;28;20076;-80
2022/09/20 23:07:39;;;;;;;0.95;0.63;;;;;;;;;;12620693;28;20043;-79
2022/09/20 23:13:41;;;;;;;0.77;0.77;;;;;;;;;;12620566;28;20024;-78
2022/09/20 23:19:43;;;;;;;1.40;0.60;;;;;;;;;;12640269;28;20474;-79
2022/09/20 23:25:45;;;;;;;1.03;0.60;;;;;;;;;;12619852;28;20043;-78
2022/09/20 23:31:47;;;;;;;0.55;0.55;;;;;;;;;;12618991;28;20462;-79
2022/09/20 23:37:49;;;;;;;3.67;1.05;;;;;;;;;;12635144;28;20035;-78
2022/09/20 23:43:51;;;;;;;2.27;1.23;;;;;;;;;;12633820;28;20089;-78
2022/09/20 23:49:52;;;;;;;1.27;0.80;;;;;;;;;;12614917;28;20048;-78
2022/09/20 23:55:54;;;;;;;0.70;0.53;;;;;;;;;;12597193;28;20036;-78
